createdAt,value
2018-09-26T12:20:51.642Z,45.60
2018-09-26T12:29:27.929Z,46.60
2018-09-26T12:32:04.033Z,46.30
2018-09-26T12:49:38.659Z,46.10
2018-09-26T13:01:28.386Z,47.00
2018-09-26T13:03:58.146Z,47.00
2018-09-26T13:06:46.391Z,47.00
2018-09-26T13:09:35.668Z,47.50
2018-09-26T13:12:04.640Z,47.50
2018-09-26T13:14:49.535Z,47.20
2018-09-26T13:23:40.835Z,47.10
2018-09-26T13:32:24.601Z,46.60
2018-09-26T13:37:58.179Z,46.30
2018-09-26T13:40:42.751Z,45.90
2018-09-26T13:43:24.321Z,45.90
2018-09-26T13:46:13.230Z,45.60
2018-09-26T13:49:04.177Z,45.50
2018-09-26T13:51:50.866Z,45.60
2018-09-26T13:54:39.332Z,45.20
2018-09-26T13:57:21.754Z,46.10
2018-09-26T14:00:02.210Z,45.10
2018-09-26T14:05:39.085Z,45.90
2018-09-26T14:08:28.029Z,46.30
2018-09-26T14:20:12.699Z,45.20
2018-09-26T14:23:00.046Z,44.90
2018-09-26T14:25:40.389Z,45.40
2018-09-26T14:28:20.913Z,44.00
2018-09-26T14:31:07.728Z,44.30
2018-09-26T14:33:48.915Z,45.30
2018-09-26T14:36:31.207Z,44.20
2018-09-26T14:39:11.781Z,43.30
2018-09-26T14:41:54.373Z,43.50
2018-09-26T14:44:36.707Z,44.20
2018-09-26T14:56:27.555Z,44.10
2018-09-26T14:59:09.821Z,44.50
2018-09-26T15:05:02.678Z,41.30
2018-09-26T15:10:36.192Z,42.60
2018-09-26T15:13:16.619Z,42.70
2018-09-26T15:15:57.324Z,41.80
2018-09-26T15:18:37.502Z,41.80
2018-09-26T15:24:27.781Z,42.30
2018-09-26T15:27:18.854Z,42.40
2018-09-26T15:30:06.347Z,42.30
2018-09-26T15:32:46.678Z,42.40
2018-09-26T15:35:37.325Z,43.30
2018-09-26T15:38:17.938Z,43.60
2018-09-26T15:40:46.150Z,43.40
2018-09-26T15:43:27.462Z,44.60
2018-09-26T15:49:15.660Z,44.20
2018-09-26T15:52:06.752Z,44.70
2018-09-26T15:54:46.974Z,44.80
2018-09-26T15:57:31.775Z,43.30
2018-09-26T16:00:15.755Z,43.40
2018-09-26T16:02:55.900Z,44.20
2018-09-26T16:05:36.626Z,44.90
2018-09-26T16:11:19.357Z,45.00
2018-09-26T16:13:59.624Z,45.70
2018-09-26T16:16:27.779Z,45.00
2018-09-26T16:19:15.001Z,45.80
2018-09-26T16:21:57.666Z,46.80
2018-09-26T16:24:26.112Z,46.70
2018-09-26T16:33:23.102Z,46.60
2018-09-26T16:39:06.703Z,46.70
2018-09-26T17:12:13.825Z,50.20
2018-09-26T17:15:05.369Z,50.70
2018-09-26T17:17:44.070Z,51.00
